Time;durP1;ratioP1;P1;durP2;ratioP2;P2;SDS_P1;SDS_P2;PMS_P1;PMS_P2;Temp;Humidity;BMP_temperature;BMP_pressure;BME280_temperature;BME280_humidity;BME280_pressure;Samples;Min_cycle;Max_cycle;Signal;HPM_P1;HPM_P2
2021/12/26 00:01:41;;;;;;;1.88;1.02;;;-2.50;99.90;;;;;;4954255;29;20122;-34
2021/12/26 00:04:07;;;;;;;2.90;1.02;;;-2.40;99.90;;;;;;4952530;29;20560;-33
2021/12/26 00:06:33;;;;;;;4.25;1.48;;;-2.40;99.90;;;;;;4957907;29;20029;-40
2021/12/26 00:09:01;;;;;;;5.68;1.35;;;-2.40;99.90;;;;;;4940772;29;20082;-30
2021/12/26 00:11:27;;;;;;;2.83;0.80;;;-2.40;99.90;;;;;;4957496;29;20054;-34
2021/12/26 00:13:55;;;;;;;0.85;0.57;;;-2.40;99.90;;;;;;4957498;29;20031;-37
2021/12/26 00:16:21;;;;;;;1.02;0.55;;;-2.40;99.90;;;;;;4958025;29;20479;-33
2021/12/26 00:18:47;;;;;;;4.15;0.88;;;-2.40;99.90;;;;;;4957282;29;20052;-36
2021/12/26 00:21:18;;;;;;;2.33;1.40;;;-2.50;99.90;;;;;;4956794;29;20491;-37
2021/12/26 00:23:44;;;;;;;2.80;1.08;;;-2.50;99.90;;;;;;4957108;29;20034;-32
2021/12/26 00:26:10;;;;;;;4.72;1.20;;;-2.50;99.90;;;;;;4957313;29;20074;-34
2021/12/26 00:28:37;;;;;;;2.95;1.17;;;-2.50;99.90;;;;;;4957510;29;20479;-39
2021/12/26 00:31:04;;;;;;;1.38;0.90;;;-2.50;99.90;;;;;;4957572;29;20086;-33
2021/12/26 00:36:14;;;;;;;2.88;0.80;;;-2.50;99.90;;;;;;4939746;29;20507;-32
2021/12/26 00:38:41;;;;;;;1.40;1.10;;;-2.50;99.90;;;;;;4944129;29;20011;-31
2021/12/26 00:41:06;;;;;;;1.63;0.80;;;-2.40;99.90;;;;;;4952530;29;20103;-34
2021/12/26 00:43:32;;;;;;;2.03;1.00;;;-2.50;99.90;;;;;;4950905;29;20158;-34
2021/12/26 00:45:58;;;;;;;3.83;1.10;;;-2.50;99.90;;;;;;4957433;29;20023;-33
2021/12/26 00:48:24;;;;;;;2.97;0.90;;;-2.50;99.90;;;;;;4957291;28;20051;-35
2021/12/26 00:50:50;;;;;;;1.35;0.80;;;-2.50;99.90;;;;;;4957396;28;20379;-39
2021/12/26 00:53:16;;;;;;;1.45;0.85;;;-2.40;99.90;;;;;;4956855;29;20035;-37
2021/12/26 00:55:42;;;;;;;1.48;0.95;;;-2.40;99.90;;;;;;4956668;29;20484;-34
2021/12/26 00:58:08;;;;;;;1.77;0.82;;;-2.40;99.90;;;;;;4956260;28;20050;-30
2021/12/26 01:00:42;;;;;;;1.88;1.08;;;-2.50;99.90;;;;;;4957323;29;20030;-31
2021/12/26 01:03:11;;;;;;;4.20;0.68;;;-2.50;99.90;;;;;;4957097;29;20065;-34
2021/12/26 01:05:39;;;;;;;2.42;1.15;;;-2.60;99.90;;;;;;4956969;28;20477;-33
2021/12/26 01:08:08;;;;;;;1.02;0.90;;;-2.50;99.90;;;;;;4957222;29;20029;-38
2021/12/26 01:10:41;;;;;;;1.38;0.80;;;-2.50;99.90;;;;;;4957165;29;20050;-32
2021/12/26 01:15:50;;;;;;;2.40;0.80;;;-2.50;99.90;;;;;;4953459;29;20067;-38
2021/12/26 01:18:16;;;;;;;1.55;0.90;;;-2.50;99.90;;;;;;4956260;29;20032;-33
2021/12/26 01:20:49;;;;;;;2.60;1.20;;;-2.50;99.90;;;;;;4956720;28;20481;-34
2021/12/26 01:23:17;;;;;;;1.10;0.60;;;-2.50;99.90;;;;;;4956786;29;20037;-35
2021/12/26 01:25:43;;;;;;;1.35;1.20;;;-2.50;99.90;;;;;;4955890;29;20595;-36
2021/12/26 01:28:09;;;;;;;2.40;1.20;;;-2.50;99.90;;;;;;4956340;28;20054;-32
2021/12/26 01:30:38;;;;;;;1.27;0.77;;;-2.40;99.90;;;;;;4955663;29;20058;-36
2021/12/26 01:33:06;;;;;;;1.02;0.90;;;-2.50;99.90;;;;;;4946418;29;20534;-37
2021/12/26 01:35:32;;;;;;;0.73;0.60;;;-2.50;99.90;;;;;;4954907;29;20088;-33
2021/12/26 01:37:57;;;;;;;1.20;0.75;;;-2.50;99.90;;;;;;4951426;28;20062;-38
2021/12/26 01:40:23;;;;;;;2.05;0.82;;;-2.50;99.90;;;;;;4956251;29;20081;-35
2021/12/26 01:42:49;;;;;;;7.18;1.00;;;-2.50;99.90;;;;;;4956229;29;20085;-35
2021/12/26 01:45:14;;;;;;;4.10;2.78;;;-2.50;99.90;;;;;;4956261;29;20088;-36
2021/12/26 01:47:40;;;;;;;1.45;0.70;;;-2.50;99.90;;;;;;4956045;28;20055;-32
2021/12/26 01:50:08;;;;;;;4.22;1.02;;;-2.50;99.90;;;;;;4955909;29;20042;-35
2021/12/26 01:52:34;;;;;;;1.08;0.90;;;-2.50;99.90;;;;;;4955692;28;20357;-36
2021/12/26 01:55:11;;;;;;;1.50;0.80;;;-2.50;99.90;;;;;;4947074;29;20046;-39
2021/12/26 01:57:37;;;;;;;3.45;1.13;;;-2.50;99.90;;;;;;4937522;29;20024;-35
2021/12/26 02:00:05;;;;;;;2.42;0.80;;;-2.50;99.90;;;;;;4955880;29;20027;-39
2021/12/26 02:02:31;;;;;;;;;;;-2.40;99.90;;;;;;4954970;29;20015;-33
2021/12/26 02:04:57;;;;;;;1.45;0.85;;;-2.30;99.90;;;;;;4955566;29;19911;-39
2021/12/26 02:07:22;;;;;;;2.97;0.90;;;-2.30;99.90;;;;;;4955494;29;20094;-35
2021/12/26 02:09:48;;;;;;;4.50;0.85;;;-2.30;99.90;;;;;;4955314;28;20118;-37
2021/12/26 02:12:14;;;;;;;2.20;1.00;;;-2.30;99.90;;;;;;4954957;28;20046;-35
2021/12/26 02:14:39;;;;;;;2.33;0.98;;;-2.20;99.90;;;;;;4955484;29;20035;-31
2021/12/26 02:17:05;;;;;;;3.35;0.82;;;-2.20;99.90;;;;;;4955765;29;20015;-33
2021/12/26 02:19:31;;;;;;;1.08;0.52;;;-2.20;99.90;;;;;;4937401;29;20086;-35
2021/12/26 02:24:43;;;;;;;1.85;1.05;;;-2.10;99.90;;;;;;4951972;29;20063;-35
2021/12/26 02:29:53;;;;;;;2.45;0.93;;;-2.10;99.90;;;;;;4955054;28;20074;-35
2021/12/26 02:32:19;;;;;;;1.63;0.98;;;-2.10;99.90;;;;;;4954973;29;20396;-35
2021/12/26 02:34:44;;;;;;;2.05;1.15;;;-2.10;99.90;;;;;;4954418;29;20086;-34
2021/12/26 02:37:10;;;;;;;1.58;0.85;;;-2.10;99.90;;;;;;4955056;29;20031;-34
2021/12/26 02:39:36;;;;;;;3.33;0.85;;;-2.10;99.90;;;;;;4955088;29;20050;-37
2021/12/26 02:42:02;;;;;;;1.23;0.70;;;-2.10;99.90;;;;;;4955396;29;20223;-39
2021/12/26 02:44:28;;;;;;;1.25;1.15;;;-2.20;99.90;;;;;;4954455;28;20081;-32
2021/12/26 02:46:53;;;;;;;0.80;0.75;;;-2.10;99.90;;;;;;4955323;29;20059;-32
2021/12/26 02:49:26;;;;;;;0.90;0.90;;;-2.10;99.90;;;;;;4954417;29;20081;-35
2021/12/26 02:51:53;;;;;;;2.28;0.68;;;-2.10;99.90;;;;;;4954776;29;20035;-34
2021/12/26 02:54:21;;;;;;;2.22;0.77;;;-2.20;99.90;;;;;;4955245;29;20118;-31
2021/12/26 02:56:47;;;;;;;0.85;0.63;;;-2.20;99.90;;;;;;4954911;29;20030;-38
2021/12/26 02:59:13;;;;;;;1.42;0.80;;;-2.30;99.90;;;;;;4954358;29;20027;-34
2021/12/26 03:01:39;;;;;;;1.02;0.68;;;-2.30;99.90;;;;;;4954343;29;20074;-37
2021/12/26 03:04:05;;;;;;;4.15;0.90;;;-2.30;99.90;;;;;;4949759;29;20405;-36
2021/12/26 03:08:57;;;;;;;2.47;0.88;;;-2.40;99.90;;;;;;4954303;29;20126;-32
2021/12/26 03:11:23;;;;;;;2.15;1.10;;;-2.50;99.90;;;;;;4936177;29;20042;-33
2021/12/26 03:13:49;;;;;;;2.97;1.00;;;-2.40;99.90;;;;;;4955011;29;20495;-39
2021/12/26 03:16:15;;;;;;;2.92;0.80;;;-2.40;99.90;;;;;;4954152;29;20023;-38
2021/12/26 03:18:41;;;;;;;2.03;0.73;;;-2.40;99.90;;;;;;4954567;28;20479;-31
2021/12/26 03:21:06;;;;;;;0.70;0.70;;;-2.50;99.90;;;;;;4954573;29;20429;-35
2021/12/26 03:23:32;;;;;;;0.88;0.75;;;-2.40;99.90;;;;;;4954062;28;20031;-33
2021/12/26 03:26:04;;;;;;;6.15;1.05;;;-2.50;99.90;;;;;;4954408;29;20044;-38
2021/12/26 03:28:31;;;;;;;0.82;0.50;;;-2.50;99.90;;;;;;4954255;29;20034;-37
2021/12/26 03:30:58;;;;;;;1.83;1.00;;;-2.50;99.90;;;;;;4954173;29;20110;-38
2021/12/26 03:33:24;;;;;;;1.10;1.00;;;-2.60;99.90;;;;;;4954178;29;20027;-33
2021/12/26 03:35:50;;;;;;;0.50;0.50;;;-2.60;99.90;;;;;;4943949;29;20512;-38
2021/12/26 03:38:18;;;;;;;1.70;0.60;;;-2.60;99.90;;;;;;4954429;29;20480;-40
2021/12/26 03:40:45;;;;;;;1.88;0.90;;;-2.60;99.90;;;;;;4953985;29;20028;-35
2021/12/26 03:43:11;;;;;;;1.67;0.80;;;-2.70;99.90;;;;;;4954193;28;20476;-36
2021/12/26 03:45:36;;;;;;;2.15;0.90;;;-2.70;99.90;;;;;;4954336;28;20038;-37
2021/12/26 03:48:03;;;;;;;1.60;0.68;;;-2.70;99.90;;;;;;4954052;29;20413;-33
2021/12/26 03:50:31;;;;;;;2.15;0.90;;;-2.70;99.90;;;;;;4954581;29;20447;-34
2021/12/26 03:52:57;;;;;;;2.53;1.00;;;-2.70;99.90;;;;;;4953493;29;20058;-33
2021/12/26 03:55:25;;;;;;;2.25;1.08;;;-2.70;99.90;;;;;;4953869;29;20060;-32
2021/12/26 03:57:51;;;;;;;1.25;0.80;;;-2.70;99.90;;;;;;4954108;29;20123;-37
2021/12/26 04:00:18;;;;;;;2.80;1.10;;;-2.60;99.90;;;;;;4936440;29;20038;-35
2021/12/26 04:02:44;;;;;;;1.63;1.10;;;-2.60;99.90;;;;;;4953853;29;21595;-38
2021/12/26 04:05:11;;;;;;;3.70;1.10;;;-2.60;99.90;;;;;;4953649;29;20098;-32
2021/12/26 04:07:37;;;;;;;2.05;0.70;;;-2.60;99.90;;;;;;4953872;29;20480;-34
2021/12/26 04:10:05;;;;;;;1.00;0.65;;;-2.70;99.90;;;;;;4953900;28;20503;-34
2021/12/26 04:12:35;;;;;;;1.50;0.75;;;-2.70;99.90;;;;;;4954498;29;20376;-37
2021/12/26 04:15:06;;;;;;;1.95;0.77;;;-2.70;99.90;;;;;;4950655;29;20396;-34
2021/12/26 04:17:32;;;;;;;3.17;0.85;;;-2.70;99.90;;;;;;4953953;29;20027;-47
2021/12/26 04:19:57;;;;;;;2.50;0.65;;;-2.60;99.90;;;;;;4953597;29;20472;-34
2021/12/26 04:22:23;;;;;;;1.33;0.75;;;-2.70;99.90;;;;;;4954069;29;20033;-34
2021/12/26 04:24:49;;;;;;;2.33;1.05;;;-2.70;99.90;;;;;;4953756;29;20480;-43
2021/12/26 04:27:14;;;;;;;0.95;0.73;;;-2.70;99.90;;;;;;4953875;29;20028;-38
2021/12/26 04:29:40;;;;;;;1.42;0.80;;;-2.70;99.90;;;;;;4953769;29;20080;-34
2021/12/26 04:32:06;;;;;;;4.25;0.95;;;-2.70;99.90;;;;;;4953996;29;20034;-33
2021/12/26 04:34:32;;;;;;;1.27;0.93;;;-2.80;99.90;;;;;;4953330;28;20070;-35
2021/12/26 04:36:58;;;;;;;2.00;1.15;;;-2.80;99.90;;;;;;4957595;29;20051;-31
2021/12/26 04:39:23;;;;;;;1.05;0.88;;;-2.70;99.90;;;;;;4957048;29;20046;-31
2021/12/26 04:41:49;;;;;;;0.68;0.68;;;-2.80;99.90;;;;;;4957106;29;20031;-34
2021/12/26 04:44:14;;;;;;;2.50;1.00;;;-2.80;99.90;;;;;;4956865;29;20062;-32
2021/12/26 04:46:40;;;;;;;2.83;0.93;;;-2.80;99.90;;;;;;4957330;28;20086;-33
2021/12/26 04:49:06;;;;;;;4.18;1.15;;;-2.80;99.90;;;;;;4957074;28;20045;-35
2021/12/26 04:51:32;;;;;;;3.55;1.30;;;-2.80;99.90;;;;;;4957195;29;20062;-34
2021/12/26 04:53:58;;;;;;;1.83;0.95;;;-2.80;99.90;;;;;;4957674;29;20033;-33
2021/12/26 04:56:24;;;;;;;1.20;1.00;;;-2.80;99.90;;;;;;4956831;29;20090;-32
2021/12/26 04:58:49;;;;;;;1.50;0.77;;;-2.70;99.90;;;;;;4957012;29;20094;-37
2021/12/26 05:01:15;;;;;;;2.15;0.77;;;-2.70;99.90;;;;;;4956881;29;20020;-35
2021/12/26 05:03:41;;;;;;;1.10;0.80;;;-2.70;99.90;;;;;;4953588;29;20039;-39
2021/12/26 05:06:07;;;;;;;0.80;0.65;;;-2.60;99.90;;;;;;4956470;29;20496;-33
2021/12/26 05:08:33;;;;;;;0.63;0.47;;;-2.70;99.90;;;;;;4956722;28;20031;-35
2021/12/26 05:10:59;;;;;;;1.85;0.82;;;-2.70;99.90;;;;;;4956757;29;20500;-34
2021/12/26 05:13:24;;;;;;;2.05;0.88;;;-2.70;99.90;;;;;;4956665;29;20121;-36
2021/12/26 05:15:50;;;;;;;1.08;0.73;;;-2.70;99.90;;;;;;4956666;29;20122;-33
2021/12/26 05:18:16;;;;;;;3.17;0.80;;;-2.70;99.90;;;;;;4956676;29;20025;-33
2021/12/26 05:20:41;;;;;;;1.27;1.08;;;-2.70;99.90;;;;;;4956638;29;20054;-31
2021/12/26 05:23:07;;;;;;;1.00;0.70;;;-2.70;99.90;;;;;;4955426;29;20110;-35
2021/12/26 05:25:33;;;;;;;1.48;0.82;;;-2.70;99.90;;;;;;4953130;29;20042;-35
2021/12/26 05:27:58;;;;;;;2.45;1.20;;;-2.70;99.90;;;;;;4956332;29;20039;-33
2021/12/26 05:30:25;;;;;;;2.58;1.25;;;-2.80;99.90;;;;;;4956552;29;20058;-36
2021/12/26 05:32:51;;;;;;;2.95;1.08;;;-2.80;99.90;;;;;;4955174;29;20031;-34
2021/12/26 05:35:18;;;;;;;1.00;0.70;;;-2.70;99.90;;;;;;4955550;29;20106;-33
2021/12/26 05:37:45;;;;;;;3.30;1.13;;;-2.80;99.90;;;;;;4956256;29;20034;-33
2021/12/26 05:40:12;;;;;;;1.10;0.95;;;-2.80;99.90;;;;;;4956272;29;20027;-37
2021/12/26 05:42:38;;;;;;;1.40;0.80;;;-2.70;99.90;;;;;;4956359;28;20496;-37
2021/12/26 05:45:05;;;;;;;2.92;1.10;;;-2.80;99.90;;;;;;4950323;28;20039;-35
2021/12/26 05:47:32;;;;;;;1.00;0.85;;;-2.80;99.90;;;;;;4955910;29;20477;-36
2021/12/26 05:49:58;;;;;;;0.93;0.73;;;-2.80;99.90;;;;;;4956391;29;20101;-31
2021/12/26 05:52:23;;;;;;;1.63;0.93;;;-2.80;99.90;;;;;;4956116;29;20035;-36
2021/12/26 05:54:49;;;;;;;1.33;0.85;;;-2.70;99.90;;;;;;4955901;28;20507;-34
2021/12/26 05:57:15;;;;;;;0.45;0.45;;;-2.80;99.90;;;;;;4938549;29;20539;-44
2021/12/26 05:59:42;;;;;;;1.38;0.68;;;-2.80;99.90;;;;;;4955558;28;20062;-34
2021/12/26 06:02:08;;;;;;;1.70;0.90;;;-2.80;99.90;;;;;;4956019;29;20493;-33
2021/12/26 06:04:34;;;;;;;0.70;0.60;;;-2.80;99.90;;;;;;4955681;29;20110;-31
2021/12/26 06:07:00;;;;;;;1.50;1.40;;;-2.80;99.90;;;;;;4955803;28;20050;-34
2021/12/26 06:09:26;;;;;;;2.38;1.15;;;-2.80;99.90;;;;;;4938864;29;20052;-36
2021/12/26 06:11:51;;;;;;;3.08;0.75;;;-2.80;99.90;;;;;;4955850;29;20039;-34
2021/12/26 06:14:17;;;;;;;3.38;1.23;;;-2.80;99.90;;;;;;4949798;29;20361;-33
2021/12/26 06:16:43;;;;;;;0.90;0.77;;;-2.80;99.90;;;;;;4955544;29;20031;-36
2021/12/26 06:19:09;;;;;;;1.33;1.10;;;-2.80;99.90;;;;;;4954731;29;20038;-31
2021/12/26 06:21:34;;;;;;;2.20;0.77;;;-2.80;99.90;;;;;;4955599;29;20028;-34
2021/12/26 06:24:00;;;;;;;1.42;0.68;;;-2.80;99.90;;;;;;4955053;29;20480;-34
2021/12/26 06:26:27;;;;;;;1.65;0.98;;;-2.80;99.90;;;;;;4955249;29;20089;-34
2021/12/26 06:28:53;;;;;;;0.53;0.53;;;-2.80;99.90;;;;;;4955682;29;20488;-35
2021/12/26 06:31:19;;;;;;;1.95;0.75;;;-2.80;99.90;;;;;;4955418;29;20297;-36
2021/12/26 06:33:46;;;;;;;1.00;0.90;;;-2.80;99.90;;;;;;4954910;28;20031;-35
2021/12/26 06:36:13;;;;;;;2.72;0.68;;;-2.80;99.90;;;;;;4955147;29;20491;-37
2021/12/26 06:38:40;;;;;;;1.40;0.98;;;-2.80;99.90;;;;;;4955198;28;20629;-30
2021/12/26 06:41:07;;;;;;;1.98;0.98;;;-2.80;99.90;;;;;;4955447;29;20039;-32
2021/12/26 06:43:34;;;;;;;1.38;0.70;;;-2.80;99.90;;;;;;4954863;29;20031;-34
2021/12/26 06:46:00;;;;;;;1.33;0.88;;;-2.80;99.90;;;;;;4955043;29;20039;-32
2021/12/26 06:48:26;;;;;;;0.77;0.68;;;-2.70;99.90;;;;;;4955159;29;20101;-33
2021/12/26 06:50:52;;;;;;;1.13;0.80;;;-2.80;99.90;;;;;;4955120;29;20042;-32
2021/12/26 06:53:18;;;;;;;1.30;0.98;;;-2.80;99.90;;;;;;4954716;29;20066;-33
2021/12/26 06:55:46;;;;;;;0.80;0.70;;;-2.80;99.90;;;;;;4955158;28;20031;-32
2021/12/26 06:58:13;;;;;;;2.03;0.87;;;-2.80;99.90;;;;;;4953798;28;20078;-32
2021/12/26 07:00:39;;;;;;;1.45;0.80;;;-2.80;99.90;;;;;;4952569;29;20535;-34
2021/12/26 07:03:05;;;;;;;1.15;0.60;;;-2.80;99.90;;;;;;4943499;29;20027;-32
2021/12/26 07:05:31;;;;;;;0.95;0.80;;;-2.80;99.90;;;;;;4954809;29;20035;-32
2021/12/26 07:07:57;;;;;;;0.98;0.77;;;-2.80;99.90;;;;;;4953845;29;20023;-37
2021/12/26 07:10:23;;;;;;;1.77;0.82;;;-2.80;99.90;;;;;;4954716;29;20472;-34
2021/12/26 07:12:49;;;;;;;1.85;1.15;;;-2.80;99.90;;;;;;4936688;29;20054;-31
2021/12/26 07:15:15;;;;;;;0.95;0.70;;;-2.80;99.90;;;;;;4954208;29;20027;-35
2021/12/26 07:17:41;;;;;;;1.48;0.93;;;-2.80;99.90;;;;;;4954772;29;20114;-36
2021/12/26 07:20:09;;;;;;;1.50;0.77;;;-2.80;99.90;;;;;;4954013;28;20031;-34
2021/12/26 07:22:35;;;;;;;1.70;0.90;;;-2.80;99.90;;;;;;4954397;29;20023;-40
2021/12/26 07:25:01;;;;;;;1.08;0.98;;;-2.80;99.90;;;;;;4954111;29;20510;-32
2021/12/26 07:27:27;;;;;;;1.65;0.77;;;-2.80;99.90;;;;;;4954425;29;20130;-33
2021/12/26 07:29:52;;;;;;;2.30;1.10;;;-2.80;99.90;;;;;;4954473;28;20054;-33
2021/12/26 07:32:18;;;;;;;1.67;0.80;;;-2.80;99.90;;;;;;4953544;29;20031;-42
2021/12/26 07:34:44;;;;;;;4.97;1.23;;;-2.70;99.90;;;;;;4952486;29;20027;-35
2021/12/26 07:37:10;;;;;;;1.85;1.17;;;-2.70;99.90;;;;;;4953917;29;20070;-34
2021/12/26 07:39:36;;;;;;;4.32;0.70;;;-2.70;99.90;;;;;;4954185;29;20027;-30
2021/12/26 07:42:02;;;;;;;2.50;0.60;;;-2.70;99.90;;;;;;4954182;28;20082;-33
2021/12/26 07:44:28;;;;;;;0.95;0.63;;;-2.80;99.90;;;;;;4954657;29;20049;-31
2021/12/26 07:46:53;;;;;;;0.60;0.60;;;-2.80;99.90;;;;;;4954250;29;20131;-34
2021/12/26 07:49:21;;;;;;;2.00;0.82;;;-2.70;99.90;;;;;;4953951;29;20477;-37
2021/12/26 07:51:48;;;;;;;1.00;0.63;;;-2.70;99.90;;;;;;4954053;28;20522;-35
2021/12/26 07:54:16;;;;;;;3.37;1.20;;;-2.70;99.90;;;;;;4954004;29;20046;-35
2021/12/26 07:56:42;;;;;;;1.00;0.93;;;-2.80;99.90;;;;;;4955065;28;20031;-31
2021/12/26 07:59:08;;;;;;;2.72;1.02;;;-2.70;99.90;;;;;;4953928;28;20376;-34
2021/12/26 08:01:33;;;;;;;0.70;0.70;;;-2.70;99.90;;;;;;4953470;29;20019;-31
2021/12/26 08:04:01;;;;;;;2.42;1.00;;;-2.70;99.90;;;;;;4953339;29;20054;-32
2021/12/26 08:06:31;;;;;;;2.10;1.05;;;-2.70;99.90;;;;;;4953717;29;20030;-35
2021/12/26 08:08:57;;;;;;;4.75;1.08;;;-2.60;99.90;;;;;;4947171;28;20043;-30
2021/12/26 08:11:23;;;;;;;3.47;1.00;;;-2.60;99.90;;;;;;4957883;28;20388;-32
2021/12/26 08:13:49;;;;;;;2.42;0.85;;;-2.60;99.90;;;;;;4951288;29;20031;-33
2021/12/26 08:16:15;;;;;;;2.60;1.05;;;-2.60;99.90;;;;;;4957483;29;20019;-32
2021/12/26 08:18:41;;;;;;;2.22;1.40;;;-2.60;99.90;;;;;;4957783;29;20507;-34
2021/12/26 08:21:07;;;;;;;4.45;1.10;;;-2.50;99.90;;;;;;4957582;29;20074;-33
2021/12/26 08:23:33;;;;;;;1.70;0.90;;;-2.50;99.90;;;;;;4957739;29;20034;-42
2021/12/26 08:26:00;;;;;;;0.95;0.60;;;-2.40;99.90;;;;;;4957343;29;20023;-34
2021/12/26 08:28:26;;;;;;;4.25;1.40;;;-2.40;99.90;;;;;;4949275;29;20488;-32
2021/12/26 08:30:52;;;;;;;0.77;0.73;;;-2.40;99.90;;;;;;4957114;28;20038;-34
2021/12/26 08:33:18;;;;;;;3.58;1.65;;;-2.30;99.90;;;;;;4952207;29;20031;-32
2021/12/26 08:35:46;;;;;;;1.70;0.80;;;-2.20;99.90;;;;;;4957685;29;20082;-36
2021/12/26 08:38:14;;;;;;;6.10;0.73;;;-2.20;99.90;;;;;;4957321;29;20054;-31
2021/12/26 08:40:39;;;;;;;1.38;0.77;;;-2.10;99.90;;;;;;4957264;28;20472;-35
2021/12/26 08:43:07;;;;;;;1.65;0.82;;;-2.10;99.90;;;;;;4924196;29;20043;-37
2021/12/26 08:45:32;;;;;;;3.17;1.20;;;-2.00;99.90;;;;;;4957287;29;20106;-33
2021/12/26 08:48:00;;;;;;;1.50;1.02;;;-2.00;99.90;;;;;;4957077;28;20322;-33
2021/12/26 08:50:27;;;;;;;2.45;1.27;;;-1.90;99.90;;;;;;4957209;28;20472;-33
2021/12/26 08:52:54;;;;;;;1.52;1.10;;;-1.90;99.90;;;;;;4956644;29;20371;-31
2021/12/26 08:55:21;;;;;;;2.47;0.97;;;-1.80;99.90;;;;;;4957376;29;20511;-36
2021/12/26 08:57:47;;;;;;;2.47;0.90;;;-1.80;99.90;;;;;;4957790;29;20310;-32
2021/12/26 09:00:14;;;;;;;1.92;1.27;;;-1.70;99.90;;;;;;4956300;29;20476;-33
2021/12/26 09:02:40;;;;;;;4.23;1.10;;;-1.70;99.90;;;;;;4957419;29;20042;-38
2021/12/26 09:05:06;;;;;;;1.08;1.00;;;-1.60;99.90;;;;;;4957245;28;20388;-34
2021/12/26 09:07:32;;;;;;;1.55;0.98;;;-1.50;99.90;;;;;;4956917;28;20027;-35
2021/12/26 09:09:58;;;;;;;1.58;1.10;;;-1.50;99.90;;;;;;4956971;29;20499;-34
2021/12/26 09:12:23;;;;;;;1.88;0.88;;;-1.40;99.90;;;;;;4956080;29;20484;-43
2021/12/26 09:14:49;;;;;;;2.47;1.40;;;-1.40;99.90;;;;;;4956607;28;20496;-36
2021/12/26 09:17:15;;;;;;;2.42;1.13;;;-1.40;99.90;;;;;;4956415;28;20023;-37
2021/12/26 09:19:41;;;;;;;2.08;1.15;;;-1.30;99.90;;;;;;4939172;29;20067;-34
2021/12/26 09:22:09;;;;;;;8.50;1.35;;;-1.30;99.90;;;;;;4953402;29;20023;-35
2021/12/26 09:24:35;;;;;;;4.63;1.08;;;-1.20;99.90;;;;;;4942548;29;20041;-33
2021/12/26 09:27:02;;;;;;;3.15;1.40;;;-1.10;99.90;;;;;;4956661;29;20510;-36
2021/12/26 09:29:27;;;;;;;1.27;1.02;;;-1.10;99.90;;;;;;4956452;28;20027;-36
2021/12/26 09:31:54;;;;;;;1.15;0.88;;;-1.00;99.90;;;;;;4956344;29;20027;-37
2021/12/26 09:34:20;;;;;;;2.15;0.88;;;-1.00;99.90;;;;;;4956627;29;20479;-34
2021/12/26 09:36:46;;;;;;;2.63;1.63;;;-0.90;99.90;;;;;;4956425;29;20028;-33
2021/12/26 09:39:12;;;;;;;3.40;1.30;;;-0.90;99.90;;;;;;4953136;29;20464;-33
2021/12/26 09:41:38;;;;;;;1.45;1.10;;;-0.80;99.90;;;;;;4955658;29;20030;-38
2021/12/26 09:44:06;;;;;;;2.10;0.98;;;-0.80;99.90;;;;;;4956383;29;20550;-36
2021/12/26 09:46:33;;;;;;;2.90;1.20;;;-0.70;99.90;;;;;;4955698;29;20031;-31
2021/12/26 09:48:59;;;;;;;2.13;1.17;;;-0.70;99.90;;;;;;4954123;29;20519;-34
2021/12/26 09:51:25;;;;;;;3.35;1.00;;;-0.70;99.90;;;;;;4954489;29;20023;-34
2021/12/26 09:53:51;;;;;;;2.88;1.10;;;-0.70;99.90;;;;;;4955009;29;20070;-33
2021/12/26 09:56:17;;;;;;;2.30;1.45;;;-0.60;99.90;;;;;;4954911;29;20063;-35
2021/12/26 09:58:59;;;;;;;2.80;1.50;;;-0.60;99.90;;;;;;4955114;29;20027;-35
2021/12/26 10:01:33;;;;;;;4.47;1.45;;;-0.50;99.90;;;;;;4955170;29;20487;-32
2021/12/26 10:04:01;;;;;;;6.97;1.40;;;-0.40;99.90;;;;;;4955100;29;20542;-34
2021/12/26 10:06:32;;;;;;;3.33;1.20;;;-0.30;99.90;;;;;;4954660;29;20023;-32
2021/12/26 10:09:01;;;;;;;3.58;1.10;;;-0.30;99.90;;;;;;4954937;29;20035;-37
2021/12/26 10:11:36;;;;;;;4.03;1.27;;;-0.30;99.90;;;;;;4954915;29;20106;-47
2021/12/26 10:14:08;;;;;;;3.05;1.08;;;-0.20;99.90;;;;;;4955080;29;20068;-43
2021/12/26 10:16:44;;;;;;;2.55;1.55;;;-0.20;99.90;;;;;;4954887;29;20037;-35
2021/12/26 10:19:10;;;;;;;4.30;2.15;;;-0.10;99.90;;;;;;4954684;29;20427;-57
2021/12/26 10:21:53;;;;;;;3.03;1.58;;;-0.10;99.90;;;;;;4950696;29;20028;-34
2021/12/26 10:24:25;;;;;;;2.58;1.23;;;0.00;99.90;;;;;;4950298;29;20488;-46
2021/12/26 10:26:54;;;;;;;2.20;1.50;;;0.20;99.90;;;;;;4952821;29;20472;-34
2021/12/26 10:29:38;;;;;;;5.18;2.10;;;0.20;99.90;;;;;;4954523;29;20110;-33
2021/12/26 10:32:26;;;;;;;2.05;1.85;;;0.30;99.90;;;;;;4952205;28;20039;-38
2021/12/26 10:34:54;;;;;;;2.90;1.73;;;0.30;99.90;;;;;;4953169;29;20019;-36
2021/12/26 10:37:31;;;;;;;3.70;1.25;;;0.40;99.90;;;;;;4954253;29;20392;-35
2021/12/26 10:40:06;;;;;;;5.18;1.77;;;0.40;99.90;;;;;;4954436;29;20074;-34
2021/12/26 10:42:36;;;;;;;3.58;1.77;;;0.40;99.90;;;;;;4935594;29;20027;-32
2021/12/26 10:45:06;;;;;;;3.88;1.40;;;0.40;99.90;;;;;;4936827;29;20441;-35
2021/12/26 10:47:33;;;;;;;3.40;1.50;;;0.30;99.90;;;;;;4952771;29;20485;-33
2021/12/26 10:50:03;;;;;;;2.55;1.83;;;0.30;99.90;;;;;;4913768;29;1203625;-50
2021/12/26 10:52:49;;;;;;;5.18;2.08;;;0.30;99.90;;;;;;4952748;29;20043;-38
2021/12/26 10:55:25;;;;;;;2.58;1.70;;;0.40;99.90;;;;;;4944487;29;20038;-35
2021/12/26 10:57:51;;;;;;;3.47;1.80;;;0.40;99.90;;;;;;4954306;29;20066;-35
2021/12/26 11:00:29;;;;;;;1.83;1.45;;;0.40;99.90;;;;;;4954610;29;20560;-44
2021/12/26 11:03:11;;;;;;;3.53;1.85;;;0.50;99.90;;;;;;4953971;29;20034;-36
2021/12/26 11:05:41;;;;;;;4.00;1.90;;;0.70;99.90;;;;;;4954270;29;20570;-46
2021/12/26 11:08:14;;;;;;;4.07;2.30;;;0.80;99.90;;;;;;4954239;29;20023;-41
2021/12/26 11:10:48;;;;;;;4.47;1.70;;;0.90;99.90;;;;;;4954505;29;20413;-36
2021/12/26 11:13:20;;;;;;;7.85;2.13;;;1.10;99.90;;;;;;4953471;29;20023;-38
2021/12/26 11:15:46;;;;;;;2.05;1.70;;;1.10;99.90;;;;;;4952724;29;20027;-42
2021/12/26 11:18:16;;;;;;;3.80;2.38;;;1.20;99.90;;;;;;4936904;29;20043;-33
2021/12/26 11:20:44;;;;;;;3.40;1.58;;;1.30;99.90;;;;;;4953459;28;20539;-36
2021/12/26 11:23:14;;;;;;;2.20;1.77;;;1.30;99.90;;;;;;4952524;29;20102;-33
2021/12/26 11:25:52;;;;;;;3.20;1.73;;;1.40;99.90;;;;;;4953709;29;20082;-37
2021/12/26 11:28:26;;;;;;;2.63;1.90;;;1.50;99.90;;;;;;4953895;29;20551;-37
2021/12/26 11:30:53;;;;;;;4.13;2.28;;;1.60;99.90;;;;;;4936034;29;20049;-33
2021/12/26 11:33:20;;;;;;;2.63;1.80;;;1.70;99.90;;;;;;4952001;29;20073;-35
2021/12/26 11:35:47;;;;;;;5.20;1.77;;;1.70;99.90;;;;;;4934328;29;20041;-34
2021/12/26 11:38:18;;;;;;;5.82;1.85;;;1.80;99.90;;;;;;4954938;29;20526;-37
2021/12/26 11:40:45;;;;;;;5.90;2.15;;;1.80;99.90;;;;;;4937470;29;20024;-38
2021/12/26 11:43:35;;;;;;;8.57;3.53;;;1.80;99.90;;;;;;4952689;29;20027;-42
2021/12/26 11:46:39;;;;;;;3.92;2.05;;;1.90;99.90;;;;;;4954664;29;20282;-38
2021/12/26 11:49:26;;;;;;;4.88;2.60;;;2.00;99.90;;;;;;4953079;29;20515;-32
2021/12/26 11:52:26;;;;;;;5.10;2.50;;;2.10;99.90;;;;;;4954002;29;20023;-33
2021/12/26 11:55:10;;;;;;;4.65;1.80;;;2.10;99.90;;;;;;4951221;29;20400;-43
2021/12/26 11:58:13;;;;;;;4.35;2.25;;;2.20;99.90;;;;;;4946449;29;20031;-39
2021/12/26 12:00:46;;;;;;;4.13;2.53;;;2.20;99.90;;;;;;4946119;29;20510;-38
2021/12/26 12:03:21;;;;;;;4.47;2.25;;;2.20;99.90;;;;;;4951723;29;20028;-34
2021/12/26 12:05:50;;;;;;;3.85;1.95;;;2.20;99.90;;;;;;4946584;29;20527;-37
2021/12/26 12:08:23;;;;;;;5.78;2.20;;;2.20;99.90;;;;;;4940887;29;20027;-38
2021/12/26 12:10:55;;;;;;;2.95;2.20;;;2.30;99.90;;;;;;4942692;29;20517;-40
2021/12/26 12:13:26;;;;;;;3.70;2.13;;;2.40;99.90;;;;;;4944384;29;20503;-42
2021/12/26 12:16:02;;;;;;;5.32;2.53;;;2.50;99.90;;;;;;4946309;29;20520;-41
2021/12/26 12:18:30;;;;;;;4.95;2.78;;;2.40;99.90;;;;;;4949029;29;20376;-39
2021/12/26 12:21:17;;;;;;;7.60;2.78;;;2.50;99.90;;;;;;4945649;29;20093;-41
2021/12/26 12:24:12;;;;;;;9.13;2.67;;;2.50;99.90;;;;;;4944005;29;20035;-41
2021/12/26 12:26:38;;;;;;;5.78;2.75;;;2.60;99.90;;;;;;4942034;29;20463;-39
2021/12/26 12:29:04;;;;;;;3.95;2.38;;;2.70;99.90;;;;;;4945427;29;20122;-39
2021/12/26 12:31:30;;;;;;;6.35;2.35;;;2.80;99.90;;;;;;4947149;29;20117;-38
2021/12/26 12:34:12;;;;;;;6.97;2.88;;;2.80;99.90;;;;;;4951637;29;20480;-39
2021/12/26 12:36:40;;;;;;;8.07;3.25;;;2.80;99.90;;;;;;4951151;29;20508;-38
2021/12/26 12:39:24;;;;;;;3.97;2.42;;;2.80;99.90;;;;;;4954037;29;20160;-38
2021/12/26 12:41:55;;;;;;;6.05;2.72;;;2.80;99.90;;;;;;4953487;29;20444;-38
2021/12/26 12:44:35;;;;;;;5.72;3.03;;;2.80;99.90;;;;;;4953161;29;20023;-36
2021/12/26 12:47:05;;;;;;;3.22;2.58;;;2.70;99.90;;;;;;4952554;29;20055;-35
2021/12/26 12:49:50;;;;;;;4.95;2.70;;;2.80;99.90;;;;;;4953679;29;20085;-40
2021/12/26 12:52:47;;;;;;;7.50;2.50;;;2.80;99.90;;;;;;4951518;29;20032;-37
2021/12/26 12:55:42;;;;;;;6.00;3.08;;;2.90;99.90;;;;;;4953177;28;20031;-41
2021/12/26 12:58:31;;;;;;;4.40;2.85;;;2.90;99.90;;;;;;4955739;29;20035;-38
2021/12/26 13:00:59;;;;;;;6.75;3.20;;;2.80;99.90;;;;;;4955433;29;20036;-36
2021/12/26 13:03:25;;;;;;;5.13;3.20;;;2.70;99.90;;;;;;4955965;29;20380;-38
2021/12/26 13:05:52;;;;;;;4.13;2.85;;;2.70;99.90;;;;;;4955334;29;20031;-36
2021/12/26 13:08:21;;;;;;;6.32;2.90;;;2.70;99.90;;;;;;4957452;29;20054;-38